Time;durP1;ratioP1;P1;durP2;ratioP2;P2;SDS_P1;SDS_P2;PMS_P1;PMS_P2;Temp;Humidity;BMP_temperature;BMP_pressure;BME280_temperature;BME280_humidity;BME280_pressure;Samples;Min_cycle;Max_cycle;Signal;HPM_P1;HPM_P2
2023/01/18 00:01:35;;;;;;;12.17;1.40;;;;;;;13.75;60.92;93123.69;5031367;28;20610;-74
2023/01/18 00:04:00;;;;;;;5.33;1.07;;;;;;;13.81;60.55;93096.94;5031424;28;20416;-77
2023/01/18 00:06:26;;;;;;;2.60;1.33;;;;;;;13.69;60.14;93100.94;5031488;28;20859;-75
2023/01/18 00:08:53;;;;;;;0.88;0.70;;;;;;;13.91;59.66;93112.75;5031488;28;20409;-74
2023/01/18 00:11:19;;;;;;;2.95;0.82;;;;;;;13.79;58.86;93082.38;5031449;28;20919;-74
2023/01/18 00:13:45;;;;;;;3.03;1.00;;;;;;;13.88;58.48;93089.47;5031758;28;20425;-74
2023/01/18 00:16:13;;;;;;;2.40;0.80;;;;;;;14.14;58.33;93119.19;5031978;28;20421;-74
2023/01/18 00:18:39;;;;;;;3.55;0.95;;;;;;;14.20;58.30;93141.09;5030904;28;20440;-74
2023/01/18 00:21:07;;;;;;;4.72;0.98;;;;;;;14.27;58.19;93091.34;5011800;28;20417;-75
2023/01/18 00:23:33;;;;;;;6.25;0.90;;;;;;;14.28;58.53;93114.06;5011445;28;20933;-74
2023/01/18 00:26:04;;;;;;;2.10;0.95;;;;;;;13.93;58.57;93065.63;5011505;28;20414;-75
2023/01/18 00:28:29;;;;;;;1.60;0.77;;;;;;;14.15;59.33;93120.00;5011487;28;20410;-74
2023/01/18 00:30:55;;;;;;;3.70;1.00;;;;;;;14.03;59.60;93103.66;5011241;28;21040;-75
2023/01/18 00:33:21;;;;;;;2.90;0.90;;;;;;;13.92;59.22;93064.03;5011387;28;20414;-74
2023/01/18 00:35:56;;;;;;;2.60;0.97;;;;;;;14.07;59.30;93092.25;5012651;28;20195;-74
2023/01/18 00:38:22;;;;;;;1.00;0.83;;;;;;;14.04;59.11;93049.69;5012623;28;20195;-74
2023/01/18 00:40:47;;;;;;;4.10;1.17;;;;;;;14.13;58.54;93072.63;5011028;28;20979;-74
2023/01/18 00:45:56;;;;;;;2.20;0.80;;;;;;;14.14;59.29;93092.72;5010814;28;21021;-74
2023/01/18 00:48:21;;;;;;;5.10;1.20;;;;;;;14.16;59.03;93097.75;5010789;28;20465;-74
2023/01/18 00:50:47;;;;;;;2.63;0.90;;;;;;;13.98;58.78;93094.69;5010891;28;20493;-74
2023/01/18 00:53:12;;;;;;;1.60;0.90;;;;;;;13.88;59.31;93060.38;5010954;28;21240;-74
2023/01/18 00:55:38;;;;;;;3.37;1.00;;;;;;;14.11;59.32;93092.47;5023168;28;20492;-74
2023/01/18 00:58:03;;;;;;;3.60;0.87;;;;;;;14.14;58.57;93084.78;5030408;28;20932;-74
2023/01/18 01:00:29;;;;;;;1.90;0.77;;;;;;;14.19;58.58;93097.19;5030422;28;20425;-74
2023/01/18 01:02:55;;;;;;;4.00;1.00;;;;;;;14.17;58.69;93083.47;5019808;28;20419;-74
2023/01/18 01:08:15;;;;;;;3.70;1.10;;;;;;;14.17;58.90;93102.00;5011096;28;20421;-74
2023/01/18 01:10:41;;;;;;;2.72;0.80;;;;;;;14.08;58.95;93085.13;5011050;28;20446;-74
2023/01/18 01:26:48;;;;;;;2.05;0.80;;;;;;;14.23;58.67;93069.13;5010472;28;20441;-73
2023/01/18 01:29:14;;;;;;;2.30;0.90;;;;;;;14.23;58.96;93093.72;5010177;28;20587;-74
2023/01/18 01:31:40;;;;;;;6.05;1.20;;;;;;;14.18;59.53;93100.94;5010014;28;20448;-74
2023/01/18 01:34:05;;;;;;;4.93;1.00;;;;;;;14.06;59.33;93079.31;5010053;28;20521;-74
2023/01/18 01:36:31;;;;;;;3.63;0.88;;;;;;;14.08;58.91;93061.31;5010503;28;20489;-74
2023/01/18 01:38:56;;;;;;;2.50;0.70;;;;;;;14.21;59.16;93079.97;5010600;28;20461;-74
2023/01/18 01:41:33;;;;;;;2.63;1.33;;;;;;;14.20;59.09;93075.75;5008461;28;20423;-74
2023/01/18 01:44:03;;;;;;;4.20;0.80;;;;;;;14.23;58.81;93079.69;5009985;28;20480;-74
2023/01/18 01:46:44;;;;;;;1.58;0.90;;;;;;;14.25;59.03;93088.16;5009866;28;20418;-74
2023/01/18 01:49:31;;;;;;;2.55;0.80;;;;;;;14.25;58.51;93093.47;5009729;28;20453;-74
2023/01/18 01:52:13;;;;;;;2.90;0.85;;;;;;;14.38;58.13;93089.38;5009599;28;20422;-74
2023/01/18 01:54:49;;;;;;;0.82;0.70;;;;;;;14.37;58.08;93091.22;5010195;28;20501;-74
2023/01/18 01:57:21;;;;;;;1.70;0.70;;;;;;;14.35;57.50;93109.25;5010560;28;20837;-74
2023/01/18 01:59:59;;;;;;;1.85;0.90;;;;;;;14.39;57.82;93102.38;5009756;28;20445;-74
2023/01/18 02:02:26;;;;;;;4.00;0.90;;;;;;;14.40;57.71;93119.03;5009890;28;20500;-74
2023/01/18 02:04:54;;;;;;;2.40;0.93;;;;;;;14.28;58.26;93100.81;5010234;28;20410;-74
2023/01/18 02:07:21;;;;;;;2.10;0.80;;;;;;;14.30;57.72;93119.88;5009611;28;20906;-74
2023/01/18 02:09:47;;;;;;;3.03;0.93;;;;;;;14.04;58.24;93073.50;5009479;28;20422;-74
2023/01/18 02:12:13;;;;;;;4.03;0.90;;;;;;;14.29;58.74;93113.00;5009790;28;20510;-74
2023/01/18 02:14:39;;;;;;;2.70;1.10;;;;;;;14.05;58.26;93078.50;5009631;28;20443;-74
2023/01/18 02:17:15;;;;;;;3.58;1.20;;;;;;;14.24;58.47;93097.16;5008810;28;20430;-74
2023/01/18 02:20:05;;;;;;;2.38;0.90;;;;;;;14.18;58.90;93106.97;5007969;28;20799;-74
2023/01/18 02:22:31;;;;;;;3.95;1.10;;;;;;;14.17;58.62;93139.81;5009103;28;20422;-74
2023/01/18 02:25:02;;;;;;;1.53;1.00;;;;;;;14.20;58.46;93110.16;5009248;28;20910;-74
2023/01/18 02:27:42;;;;;;;3.17;1.50;;;;;;;14.19;59.00;93128.94;5009360;28;20407;-74
2023/01/18 02:30:23;;;;;;;3.33;1.03;;;;;;;14.05;59.40;93126.13;5009128;28;20422;-74
2023/01/18 02:32:55;;;;;;;4.63;1.23;;;;;;;14.06;59.79;93127.72;5008989;28;20462;-74
2023/01/18 02:35:48;;;;;;;4.97;0.90;;;;;;;14.10;59.08;93101.47;5009228;28;20568;-74
2023/01/18 02:38:24;;;;;;;2.67;0.80;;;;;;;14.06;58.75;93101.25;5003121;28;21008;-74
2023/01/18 02:46:29;;;;;;;5.53;1.02;;;;;;;14.13;59.16;93128.19;5009470;28;20454;-74
2023/01/18 02:47:10;;;;;;;4.63;1.00;;;;;;;13.96;59.59;93101.31;5007468;28;20435;-74
2023/01/18 02:49:35;;;;;;;5.77;1.40;;;;;;;14.02;59.62;93104.72;5009498;28;20398;-73
2023/01/18 02:52:05;;;;;;;3.27;0.93;;;;;;;14.01;59.88;93124.31;5009366;28;20415;-73
2023/01/18 02:54:35;;;;;;;1.80;1.10;;;;;;;14.05;59.32;93122.69;5008216;28;20872;-73
2023/01/18 02:57:07;;;;;;;3.70;1.08;;;;;;;14.13;58.79;93144.06;5009088;28;20477;-73
2023/01/18 02:59:41;;;;;;;3.70;1.00;;;;;;;14.18;58.62;93167.09;5009100;28;20520;-73
2023/01/18 03:02:15;;;;;;;3.30;1.10;;;;;;;14.20;58.64;93143.75;5008870;28;20439;-74
2023/01/18 03:04:55;;;;;;;4.70;1.15;;;;;;;14.19;58.75;93150.91;5008969;28;20419;-73
2023/01/18 03:08:04;;;;;;;4.10;0.97;;;;;;;14.13;58.77;93116.81;5009139;28;20414;-74
2023/01/18 03:10:36;;;;;;;3.95;1.05;;;;;;;14.12;58.70;93126.63;5004853;28;20797;-74
2023/01/18 03:13:15;;;;;;;6.17;1.27;;;;;;;14.02;59.54;93144.41;5002070;28;20242;-74
2023/01/18 03:15:50;;;;;;;5.20;1.30;;;;;;;14.03;58.79;93133.53;5017375;28;20518;-73
2023/01/18 03:18:26;;;;;;;2.60;1.20;;;;;;;14.07;59.49;93133.81;5028418;28;20495;-74
2023/01/18 03:20:54;;;;;;;3.30;1.10;;;;;;;14.10;59.02;93154.41;5028631;28;20425;-74
2023/01/18 03:23:37;;;;;;;4.33;1.00;;;;;;;14.11;58.79;93137.47;5029559;28;20787;-74
2023/01/18 03:26:15;;;;;;;3.13;1.30;;;;;;;14.12;58.89;93134.56;5028585;28;20424;-74
2023/01/18 03:34:24;;;;;;;3.38;1.38;;;;;;;14.16;58.41;93129.50;5032500;28;20428;-74
2023/01/18 03:36:52;;;;;;;5.30;1.30;;;;;;;14.02;58.80;93115.28;5031963;28;20421;-74
2023/01/18 03:39:34;;;;;;;4.00;1.17;;;;;;;14.07;59.48;93112.63;5031910;28;20437;-74
2023/01/18 03:42:06;;;;;;;4.63;1.10;;;;;;;14.14;58.40;93131.63;5031741;28;20416;-74
2023/01/18 03:44:35;;;;;;;5.22;0.93;;;;;;;14.09;58.97;93121.09;5032441;28;20420;-74
2023/01/18 03:47:03;;;;;;;5.80;1.20;;;;;;;14.08;59.18;93115.00;5032876;28;20420;-74
2023/01/18 03:49:30;;;;;;;4.10;1.08;;;;;;;14.08;58.75;93107.06;5031499;28;20425;-73
2023/01/18 03:52:00;;;;;;;4.95;1.20;;;;;;;14.05;58.63;93110.25;5031983;28;20416;-74
2023/01/18 03:54:52;;;;;;;4.93;1.40;;;;;;;14.10;58.35;93093.53;5031941;28;20417;-74
2023/01/18 03:57:30;;;;;;;5.35;1.45;;;;;;;14.10;57.94;93110.22;5031364;28;20484;-76
2023/01/18 03:59:56;;;;;;;3.10;1.13;;;;;;;14.07;57.69;93049.13;5030368;28;20438;-74
2023/01/18 04:02:22;;;;;;;3.20;1.42;;;;;;;14.19;57.82;93066.22;5031747;28;20511;-74
2023/01/18 04:04:47;;;;;;;6.23;1.27;;;;;;;14.20;57.49;93085.53;5031612;28;20509;-74
2023/01/18 04:07:13;;;;;;;4.13;1.17;;;;;;;14.16;58.15;93095.91;5014551;28;20432;-74
2023/01/18 04:09:38;;;;;;;3.67;1.00;;;;;;;14.15;57.80;93085.59;5011803;28;20486;-74
2023/01/18 04:12:04;;;;;;;3.93;1.30;;;;;;;14.14;57.94;93098.03;5012256;28;20458;-74
2023/01/18 04:14:29;;;;;;;9.27;1.60;;;;;;;14.17;58.28;93100.13;5011023;28;20446;-73
2023/01/18 04:16:55;;;;;;;5.53;1.33;;;;;;;14.18;57.68;93108.88;5011354;28;20424;-73
2023/01/18 04:19:20;;;;;;;4.90;1.20;;;;;;;14.05;58.15;93083.00;5011284;28;20449;-73
2023/01/18 04:21:45;;;;;;;7.50;1.60;;;;;;;14.17;57.71;93129.25;5008152;28;20434;-73
2023/01/18 04:24:11;;;;;;;5.40;1.67;;;;;;;14.21;58.03;93114.38;5011110;28;20518;-73
2023/01/18 04:26:37;;;;;;;4.93;1.17;;;;;;;14.19;57.64;93105.91;5011441;28;20427;-73
2023/01/18 04:29:03;;;;;;;7.40;1.40;;;;;;;14.00;56.86;93065.34;5011373;28;20421;-74
2023/01/18 04:31:29;;;;;;;2.47;1.10;;;;;;;14.21;57.54;93113.59;5011436;28;20501;-73
2023/01/18 04:33:54;;;;;;;5.13;1.50;;;;;;;14.28;57.61;93132.59;5011403;28;20874;-75
2023/01/18 04:36:21;;;;;;;5.77;1.40;;;;;;;14.30;57.83;93099.50;5026835;28;20418;-75
2023/01/18 04:38:46;;;;;;;5.97;1.20;;;;;;;13.97;58.01;93087.03;5005242;28;20440;-75
2023/01/18 04:41:12;;;;;;;4.63;1.20;;;;;;;13.87;58.55;93079.94;5004823;28;20445;-75
2023/01/18 04:43:37;;;;;;;4.83;1.50;;;;;;;14.11;58.47;93077.41;5003319;28;20441;-75
2023/01/18 04:46:03;;;;;;;5.10;1.27;;;;;;;14.03;58.61;93074.56;5013161;28;20517;-75
2023/01/18 04:48:28;;;;;;;4.17;1.30;;;;;;;14.09;58.94;93153.63;5007712;28;20426;-75
2023/01/18 04:50:54;;;;;;;4.07;1.67;;;;;;;14.09;59.04;93089.34;5010623;28;20429;-75
2023/01/18 04:53:20;;;;;;;5.30;1.47;;;;;;;13.84;59.22;93069.91;5011101;28;20493;-75
2023/01/18 04:55:45;;;;;;;5.95;1.45;;;;;;;14.04;58.72;93084.06;5015882;28;20448;-78
2023/01/18 04:58:11;;;;;;;5.72;2.40;;;;;;;14.05;59.10;93098.88;5028892;28;20812;-75
2023/01/18 05:00:39;;;;;;;4.72;2.22;;;;;;;14.02;58.47;93083.56;5027706;28;20542;-75
2023/01/18 05:03:07;;;;;;;4.78;1.45;;;;;;;14.01;58.27;93077.47;5017028;28;20417;-75
2023/01/18 05:05:33;;;;;;;4.25;1.20;;;;;;;13.82;58.60;93028.97;5028569;28;20452;-75
2023/01/18 05:07:58;;;;;;;4.68;1.00;;;;;;;13.87;58.65;93037.63;5011280;28;20843;-75
2023/01/18 05:10:23;;;;;;;4.82;1.38;;;;;;;14.14;57.65;93070.78;5018452;28;20524;-75
2023/01/18 05:12:49;;;;;;;4.07;1.20;;;;;;;14.20;57.72;93080.25;5011775;28;20969;-75
2023/01/18 05:15:14;;;;;;;5.67;1.40;;;;;;;13.63;56.98;92967.22;5029151;28;20405;-75
2023/01/18 05:17:40;;;;;;;4.35;1.40;;;;;;;13.92;57.32;93011.13;5029994;28;20804;-76
2023/01/18 05:20:07;;;;;;;3.40;1.30;;;;;;;14.28;57.55;93087.59;5031239;28;20183;-75
2023/01/18 05:22:33;;;;;;;5.40;1.30;;;;;;;14.13;57.14;93001.19;5009343;28;20510;-75
2023/01/18 05:24:59;;;;;;;2.83;1.60;;;;;;;14.28;56.77;93080.44;5009003;28;20426;-74
2023/01/18 05:27:24;;;;;;;5.53;1.23;;;;;;;14.49;56.06;93072.38;5010065;28;20429;-73
2023/01/18 05:29:50;;;;;;;7.33;1.77;;;;;;;14.50;56.04;93097.78;5010587;28;20415;-73
2023/01/18 05:32:16;;;;;;;3.97;1.75;;;;;;;14.43;56.29;93102.63;5009640;28;20434;-73
2023/01/18 05:34:42;;;;;;;3.43;0.90;;;;;;;14.52;56.21;93116.84;5009984;28;20418;-73
2023/01/18 05:37:08;;;;;;;12.40;2.33;;;;;;;14.48;56.66;93108.66;5010344;28;20946;-73
2023/01/18 05:39:33;;;;;;;7.17;1.30;;;;;;;14.41;56.92;93092.28;5010547;28;20430;-73
2023/01/18 05:41:58;;;;;;;5.93;1.60;;;;;;;14.36;57.15;93106.31;5011016;28;20989;-73
2023/01/18 05:44:24;;;;;;;5.17;1.30;;;;;;;14.14;57.63;93063.63;5010503;28;20488;-73
2023/01/18 05:46:49;;;;;;;4.47;1.27;;;;;;;14.25;58.01;93083.66;5010600;28;20484;-73
2023/01/18 05:49:15;;;;;;;3.00;1.27;;;;;;;14.21;58.33;93098.50;5009978;28;20802;-73
2023/01/18 05:51:40;;;;;;;9.17;1.50;;;;;;;13.99;57.90;93076.97;5009238;28;20431;-73
2023/01/18 05:54:06;;;;;;;4.00;1.37;;;;;;;14.39;56.73;93070.59;5010802;28;20267;-73
2023/01/18 05:56:31;;;;;;;5.05;1.25;;;;;;;14.42;56.84;93091.22;5010190;28;20415;-73
2023/01/18 05:58:57;;;;;;;4.35;1.40;;;;;;;14.34;56.90;93118.25;5009857;28;20553;-73
2023/01/18 06:01:22;;;;;;;8.27;1.40;;;;;;;14.54;56.00;93102.22;5009510;28;20507;-73
2023/01/18 06:03:48;;;;;;;6.87;1.87;;;;;;;14.53;56.79;93129.00;5009825;28;20891;-73
2023/01/18 06:06:15;;;;;;;2.60;1.10;;;;;;;14.48;56.90;93107.84;5009524;28;20184;-73
2023/01/18 06:08:41;;;;;;;6.40;1.30;;;;;;;14.45;57.30;93122.44;5009697;28;20414;-73
2023/01/18 06:11:06;;;;;;;4.43;1.40;;;;;;;14.26;57.67;93110.91;5009694;28;20505;-74
2023/01/18 06:13:32;;;;;;;9.30;1.25;;;;;;;14.30;57.65;93133.09;5009488;28;20513;-73
2023/01/18 06:15:59;;;;;;;10.48;1.42;;;;;;;14.27;57.38;93109.84;5009677;28;20422;-73
2023/01/18 06:18:27;;;;;;;3.80;1.25;;;;;;;14.35;58.02;93093.38;5009571;28;20529;-73
2023/01/18 06:20:54;;;;;;;4.25;1.15;;;;;;;14.27;57.61;93096.63;5009823;28;20481;-73
2023/01/18 06:23:19;;;;;;;2.67;1.10;;;;;;;14.33;58.19;93151.09;5010503;28;20183;-73
2023/01/18 06:25:45;;;;;;;4.90;1.20;;;;;;;14.20;58.38;93155.13;5010470;28;20188;-73
2023/01/18 06:28:10;;;;;;;5.07;1.60;;;;;;;14.34;57.87;93156.13;5010867;28;20184;-74
2023/01/18 06:30:36;;;;;;;5.83;2.03;;;;;;;14.39;58.18;93150.00;5008518;28;20298;-73
2023/01/18 06:33:05;;;;;;;2.50;0.93;;;;;;;14.30;58.17;93096.06;5010608;28;20180;-74
2023/01/18 06:35:35;;;;;;;3.63;1.07;;;;;;;14.36;58.53;93163.75;4999755;28;20173;-74
2023/01/18 06:38:01;;;;;;;8.67;1.20;;;;;;;14.48;58.53;93148.34;5002378;28;20667;-74
2023/01/18 06:40:27;;;;;;;5.73;1.20;;;;;;;14.76;57.04;93157.41;5010434;28;20259;-74
2023/01/18 06:42:52;;;;;;;7.13;1.27;;;;;;;15.13;56.20;93125.00;5010484;28;20267;-74
2023/01/18 06:45:20;;;;;;;1.70;1.27;;;;;;;15.37;56.01;93125.78;5010581;28;20199;-74
2023/01/18 06:47:47;;;;;;;14.10;1.60;;;;;;;15.58;55.56;93126.34;5010486;28;20180;-74
2023/01/18 06:50:12;;;;;;;7.30;1.43;;;;;;;15.80;54.59;93075.41;5010538;28;20181;-74
2023/01/18 06:52:38;;;;;;;4.27;1.33;;;;;;;15.66;55.09;93106.38;5010361;28;20181;-74
2023/01/18 06:55:03;;;;;;;4.00;1.27;;;;;;;15.54;55.12;93098.03;5010296;28;20188;-74
2023/01/18 06:57:29;;;;;;;2.23;1.10;;;;;;;15.52;55.10;93077.06;5010063;28;20179;-74
2023/01/18 06:59:54;;;;;;;4.33;1.73;;;;;;;15.38;55.72;93100.06;5009998;28;20188;-74
2023/01/18 07:02:20;;;;;;;6.67;1.73;;;;;;;15.35;55.60;93121.84;5008480;28;20748;-74
2023/01/18 07:04:45;;;;;;;14.90;1.67;;;;;;;15.55;55.26;93124.28;5009229;28;20183;-74
2023/01/18 07:07:12;;;;;;;5.90;1.37;;;;;;;15.70;55.00;93120.66;5014014;28;20243;-74
2023/01/18 07:09:37;;;;;;;8.73;1.17;;;;;;;15.89;54.44;93100.25;5013921;28;20620;-74
2023/01/18 07:12:03;;;;;;;7.90;1.95;;;;;;;16.32;53.10;93124.03;5014005;28;20191;-76
2023/01/18 07:14:29;;;;;;;2.75;1.33;;;;;;;16.40;53.05;93123.38;5014032;28;20176;-74
2023/01/18 07:16:54;;;;;;;6.65;1.40;;;;;;;16.42;52.79;93123.88;5013781;28;20199;-74
2023/01/18 07:19:19;;;;;;;9.52;1.73;;;;;;;16.66;51.83;93139.75;5013680;28;20201;-74
2023/01/18 07:21:45;;;;;;;7.03;1.60;;;;;;;16.66;52.30;93127.25;5003692;28;20203;-72
2023/01/18 07:24:10;;;;;;;7.30;1.50;;;;;;;17.11;51.21;93209.97;5008089;28;20272;-72
2023/01/18 07:26:36;;;;;;;9.88;1.98;;;;;;;16.99;51.34;93093.47;5004964;28;20219;-73
2023/01/18 07:29:01;;;;;;;7.65;2.17;;;;;;;17.14;51.21;93108.34;5005074;28;20205;-72
2023/01/18 07:31:27;;;;;;;4.75;1.23;;;;;;;17.16;50.89;93149.50;5007505;28;20188;-72
2023/01/18 07:33:52;;;;;;;7.82;1.50;;;;;;;17.24;51.13;93140.84;5004603;28;20180;-73
2023/01/18 07:36:19;;;;;;;4.65;1.33;;;;;;;17.61;49.43;93139.09;5004557;28;20220;-72
2023/01/18 07:38:46;;;;;;;5.95;1.10;;;;;;;17.81;49.01;93154.72;5005777;28;20586;-73
2023/01/18 07:41:13;;;;;;;6.22;2.03;;;;;;;18.17;48.22;93164.59;5003795;28;20257;-72
2023/01/18 07:43:39;;;;;;;6.05;1.92;;;;;;;18.74;47.17;93144.44;5007460;28;20207;-72
2023/01/18 07:46:07;;;;;;;11.57;2.38;;;;;;;19.44;45.61;93173.09;5006386;28;20548;-73
2023/01/18 07:48:33;;;;;;;7.93;1.67;;;;;;;19.43;44.75;93164.28;5005908;28;20529;-72
2023/01/18 07:51:04;;;;;;;11.25;2.58;;;;;;;19.42;45.22;93170.72;5000306;28;20234;-73
2023/01/18 07:53:31;;;;;;;6.15;1.52;;;;;;;20.00;43.77;93176.94;5013273;28;20238;-73
2023/01/18 07:56:07;;;;;;;8.38;1.85;;;;;;;20.06;44.13;93205.09;5008113;28;20173;-72
2023/01/18 07:58:34;;;;;;;6.13;1.15;;;;;;;19.67;43.86;93220.00;5006715;28;20200;-75
2023/01/18 08:01:14;;;;;;;10.00;2.83;;;;;;;19.22;44.92;93209.38;5007037;28;20299;-73
2023/01/18 08:03:41;;;;;;;12.05;3.15;;;;;;;19.31;45.35;93214.75;5004651;28;20243;-72
2023/01/18 08:06:08;;;;;;;3.85;1.65;;;;;;;19.94;43.47;93203.78;5009030;28;20169;-72
2023/01/18 08:08:35;;;;;;;11.18;1.88;;;;;;;19.86;44.22;93247.28;5010157;28;20172;-73
2023/01/18 08:11:02;;;;;;;8.32;1.95;;;;;;;20.14;43.37;93263.09;5011224;28;20170;-72
2023/01/18 08:15:54;;;;;;;4.18;1.52;;;;;;;18.71;45.99;93257.78;5067638;28;20548;-75
2023/01/18 08:18:20;;;;;;;11.25;1.63;;;;;;;18.75;46.83;93311.28;5067762;28;20271;-73
2023/01/18 08:20:47;;;;;;;2.75;1.35;;;;;;;18.58;47.01;93263.16;5067474;28;20640;-74
2023/01/18 08:23:12;;;;;;;1.08;0.88;;;;;;;18.59;46.73;93292.19;5067603;28;20178;-74
2023/01/18 08:25:38;;;;;;;3.17;1.10;;;;;;;18.19;47.68;93300.94;5067510;28;20197;-74
2023/01/18 08:28:04;;;;;;;3.58;1.48;;;;;;;18.04;48.11;93286.03;5067414;28;20182;-74
2023/01/18 08:30:36;;;;;;;9.05;1.33;;;;;;;17.88;49.27;93287.41;5067496;28;20228;-74
2023/01/18 08:33:03;;;;;;;4.15;1.48;;;;;;;18.22;48.49;93290.50;5067268;28;20233;-73
2023/01/18 08:35:31;;;;;;;5.05;1.25;;;;;;;18.25;48.47;93295.19;5067263;28;20178;-74
2023/01/18 08:37:59;;;;;;;5.65;1.38;;;;;;;18.04;48.57;93291.38;5065783;28;20568;-73
2023/01/18 08:40:25;;;;;;;4.03;1.30;;;;;;;17.89;49.23;93275.69;5067037;28;20184;-74
2023/01/18 08:42:55;;;;;;;3.83;1.73;;;;;;;17.65;49.63;93303.22;5067112;28;20179;-73
2023/01/18 08:45:21;;;;;;;2.40;1.27;;;;;;;17.60;50.39;93279.34;5067341;28;20194;-73
2023/01/18 08:47:46;;;;;;;5.97;1.67;;;;;;;17.45;49.96;93305.44;5066980;28;20576;-73
2023/01/18 08:50:12;;;;;;;4.07;1.70;;;;;;;17.20;51.09;93304.75;5067060;28;20185;-73
2023/01/18 08:52:37;;;;;;;6.80;1.17;;;;;;;17.39;50.83;93288.75;5066961;28;20646;-73
2023/01/18 08:55:04;;;;;;;6.43;2.03;;;;;;;17.17;51.42;93288.59;5066814;28;20193;-73
2023/01/18 08:57:30;;;;;;;8.82;1.55;;;;;;;17.26;51.69;93316.09;5066814;28;20564;-73
2023/01/18 08:59:55;;;;;;;6.95;2.40;;;;;;;17.20;51.16;93314.59;5066732;28;20179;-73
2023/01/18 09:02:22;;;;;;;7.72;1.75;;;;;;;17.17;51.62;93323.94;5066834;28;20171;-73
2023/01/18 09:04:48;;;;;;;4.65;1.40;;;;;;;17.34;51.25;93315.44;5066547;28;20230;-73
2023/01/18 09:07:14;;;;;;;5.32;1.33;;;;;;;17.30;50.90;93364.97;5066730;28;20257;-73
2023/01/18 09:09:40;;;;;;;5.47;1.35;;;;;;;17.11;51.38;93353.56;5066566;28;20174;-73
2023/01/18 09:12:05;;;;;;;5.88;1.83;;;;;;;16.73;52.78;93358.84;5066767;28;20174;-74
2023/01/18 09:14:31;;;;;;;9.25;1.75;;;;;;;16.83;52.63;93324.16;5066209;28;20214;-74
2023/01/18 09:16:56;;;;;;;1.90;1.25;;;;;;;17.09;52.30;93361.03;5066511;28;20269;-74
2023/01/18 09:19:21;;;;;;;5.63;1.92;;;;;;;17.24;52.01;93331.53;5066623;28;20634;-75
2023/01/18 09:21:49;;;;;;;3.47;1.33;;;;;;;17.27;52.15;93376.19;5065204;28;20257;-74
2023/01/18 09:24:14;;;;;;;3.25;1.50;;;;;;;16.95;52.69;93347.69;5066179;28;20787;-74
2023/01/18 09:26:40;;;;;;;2.20;1.55;;;;;;;16.97;52.80;93351.59;5056449;28;20258;-74
2023/01/18 09:29:09;;;;;;;6.10;1.33;;;;;;;16.95;53.01;93375.03;5052953;28;20626;-74
2023/01/18 09:31:34;;;;;;;11.13;2.03;;;;;;;16.88;53.24;93336.59;5053207;28;21005;-73
2023/01/18 09:33:59;;;;;;;6.95;1.95;;;;;;;17.01;52.88;93369.66;5053058;28;20210;-74
2023/01/18 09:36:26;;;;;;;10.10;1.60;;;;;;;16.77;53.43;93380.34;5052903;28;20183;-72
2023/01/18 09:38:53;;;;;;;5.00;1.50;;;;;;;16.87;53.20;93375.66;5059780;28;20182;-73
2023/01/18 09:41:33;;;;;;;7.90;1.98;;;;;;;16.85;53.51;93369.88;5072842;28;20176;-73
2023/01/18 09:44:12;;;;;;;6.35;1.70;;;;;;;16.88;53.29;93374.59;5072829;28;20190;-73
2023/01/18 09:46:40;;;;;;;3.03;1.10;;;;;;;16.81;53.07;93376.81;5072904;28;20572;-73
2023/01/18 09:49:16;;;;;;;5.55;1.27;;;;;;;16.86;53.39;93374.09;5072790;28;20629;-73
2023/01/18 09:51:55;;;;;;;5.35;1.20;;;;;;;16.93;52.84;93368.44;5072986;28;20559;-73
2023/01/18 09:54:48;;;;;;;6.78;1.88;;;;;;;16.94;52.89;93348.75;5072742;28;20233;-73
2023/01/18 09:57:44;;;;;;;6.93;1.88;;;;;;;16.68;54.09;93340.31;5072780;28;20182;-75
2023/01/18 10:00:26;;;;;;;5.25;1.90;;;;;;;16.86;53.14;93325.47;5072627;28;20245;-74
2023/01/18 10:02:59;;;;;;;6.90;2.15;;;;;;;16.88;53.05;93348.00;5072737;28;20229;-72
2023/01/18 10:05:30;;;;;;;4.10;1.45;;;;;;;16.91;53.38;93338.69;5069633;28;20734;-73
2023/01/18 10:08:13;;;;;;;9.93;1.90;;;;;;;16.69;53.22;93336.56;5048703;28;20190;-73
2023/01/18 10:11:07;;;;;;;5.40;2.05;;;;;;;16.82;53.25;93335.88;5049743;28;20170;-73
2023/01/18 10:14:04;;;;;;;6.18;1.60;;;;;;;16.79;52.11;93352.38;5041419;28;20269;-74
2023/01/18 10:16:31;;;;;;;5.80;1.65;;;;;;;16.81;52.28;93304.25;5051704;28;20195;-74
2023/01/18 10:18:56;;;;;;;13.15;1.60;;;;;;;16.79;52.75;93327.66;5052372;28;20254;-72
2023/01/18 10:21:47;;;;;;;10.82;1.30;;;;;;;16.80;52.64;93322.06;5052146;28;20220;-73
2023/01/18 10:24:28;;;;;;;5.03;1.48;;;;;;;16.79;52.50;93325.81;5048507;28;20226;-74
2023/01/18 10:27:04;;;;;;;11.45;1.70;;;;;;;16.90;51.71;93343.19;5053245;28;20214;-74
2023/01/18 10:29:53;;;;;;;4.70;1.40;;;;;;;16.72;51.77;93321.94;5051732;28;20189;-76
2023/01/18 10:32:22;;;;;;;2.67;1.25;;;;;;;16.55;52.57;93309.88;5050050;28;20177;-73
2023/01/18 10:34:52;;;;;;;3.45;1.20;;;;;;;16.51;52.47;93314.22;5051623;28;20175;-74
2023/01/18 10:37:29;;;;;;;12.77;1.63;;;;;;;16.54;52.47;93344.69;5050446;28;20605;-74
2023/01/18 10:40:00;;;;;;;7.00;1.65;;;;;;;16.52;52.10;93341.53;5051550;28;20187;-74
2023/01/18 10:42:36;;;;;;;13.32;2.10;;;;;;;16.59;52.62;93349.97;5051147;28;20183;-73
2023/01/18 10:45:02;;;;;;;6.63;1.50;;;;;;;16.51;52.75;93364.69;5048933;28;20742;-73
2023/01/18 10:47:27;;;;;;;12.25;2.28;;;;;;;16.56;52.52;93355.84;5051160;28;20183;-75
2023/01/18 10:49:57;;;;;;;11.02;1.60;;;;;;;16.42;52.77;93362.94;5050131;28;20175;-74
2023/01/18 10:52:29;;;;;;;7.15;1.60;;;;;;;16.42;52.71;93358.41;5052453;28;20167;-74
2023/01/18 10:55:00;;;;;;;6.15;1.45;;;;;;;16.43;52.87;93385.75;5048504;28;20209;-75
2023/01/18 10:57:47;;;;;;;6.28;1.90;;;;;;;16.50;52.92;93402.16;5050980;28;20246;-74
2023/01/18 11:00:22;;;;;;;5.75;1.63;;;;;;;16.56;52.71;93387.72;5051196;28;20553;-75
2023/01/18 11:02:49;;;;;;;13.60;1.75;;;;;;;16.41;52.55;93377.28;5050366;28;20224;-74
2023/01/18 11:05:18;;;;;;;11.25;1.60;;;;;;;16.40;52.87;93365.06;5051159;28;20205;-74
2023/01/18 11:07:43;;;;;;;8.60;2.22;;;;;;;16.47;53.03;93365.50;5054016;28;20245;-75
2023/01/18 11:10:26;;;;;;;6.85;1.20;;;;;;;16.50;52.57;93363.09;5051283;28;20187;-75
2023/01/18 11:12:53;;;;;;;10.40;1.88;;;;;;;16.32;52.96;93347.91;5050677;28;20178;-75
2023/01/18 11:15:18;;;;;;;6.60;1.90;;;;;;;16.47;53.86;93354.88;5050856;28;20705;-75
2023/01/18 11:17:53;;;;;;;8.63;2.28;;;;;;;16.44;53.43;93353.59;5057881;28;20182;-75
2023/01/18 11:20:28;;;;;;;12.40;2.10;;;;;;;16.61;53.03;93358.47;5069509;28;20177;-75
2023/01/18 11:23:01;;;;;;;7.80;1.73;;;;;;;16.72;53.08;93362.56;5070297;28;20182;-75
2023/01/18 11:25:35;;;;;;;8.85;2.15;;;;;;;16.55;52.11;93343.63;5068823;28;20677;-76
2023/01/18 11:28:03;;;;;;;9.65;1.88;;;;;;;16.48;52.64;93361.78;5070223;28;20187;-75
2023/01/18 11:30:28;;;;;;;11.68;4.22;;;;;;;16.50;52.47;93349.03;5070229;28;20201;-75
2023/01/18 11:32:58;;;;;;;12.93;3.15;;;;;;;16.55;52.20;93341.78;5070245;28;20221;-75
2023/01/18 11:35:35;;;;;;;10.25;2.55;;;;;;;16.73;51.61;93337.59;5070116;28;20196;-75
2023/01/18 11:38:05;;;;;;;6.88;1.60;;;;;;;16.58;51.79;93353.69;5070121;28;20181;-75
2023/01/18 11:40:32;;;;;;;12.52;2.08;;;;;;;16.57;51.76;93352.13;5068826;28;20188;-75
2023/01/18 11:43:14;;;;;;;14.30;3.05;;;;;;;16.63;51.46;93360.84;5070046;28;20174;-75
2023/01/18 11:45:49;;;;;;;5.60;1.40;;;;;;;16.68;51.67;93350.16;5069799;28;20212;-75
2023/01/18 11:48:40;;;;;;;13.88;2.67;;;;;;;16.60;52.37;93368.25;5069819;28;20195;-75
2023/01/18 11:51:39;;;;;;;10.00;1.70;;;;;;;16.51;52.16;93363.88;5068688;28;20197;-75
2023/01/18 11:54:10;;;;;;;4.40;2.38;;;;;;;16.58;52.48;93369.63;5064947;28;20169;-75
2023/01/18 11:56:41;;;;;;;8.55;2.10;;;;;;;16.52;51.92;93363.56;5049700;28;20240;-75
2023/01/18 11:59:29;;;;;;;6.65;1.60;;;;;;;16.76;51.31;93387.53;5049924;28;20182;-75
2023/01/18 12:02:24;;;;;;;6.35;1.73;;;;;;;16.76;51.23;93387.53;5049789;28;20178;-75
2023/01/18 12:05:12;;;;;;;5.60;1.42;;;;;;;16.68;50.84;93395.34;5049570;28;20277;-75
2023/01/18 12:07:59;;;;;;;9.15;1.77;;;;;;;16.59;51.55;93387.16;5043158;28;20673;-75
2023/01/18 12:10:31;;;;;;;13.43;2.35;;;;;;;16.67;51.40;93391.88;5049792;28;20183;-75
2023/01/18 12:13:11;;;;;;;8.75;1.73;;;;;;;16.81;51.16;93384.00;5049724;28;20745;-75
2023/01/18 12:16:12;;;;;;;8.13;2.05;;;;;;;16.94;50.39;93385.97;5049511;28;20242;-75